Time;durP1;ratioP1;P1;durP2;ratioP2;P2;SDS_P1;SDS_P2;PMS_P1;PMS_P2;Temp;Humidity;BMP_temperature;BMP_pressure;BME280_temperature;BME280_humidity;BME280_pressure;Samples;Min_cycle;Max_cycle;Signal;HPM_P1;HPM_P2
2023/08/13 00:01:51;;;;;;;;;;;;;;;;;;5026777;27;89636;-68
2023/08/13 00:04:16;;;;;;;;;;;;;;;;;;5028009;27;90858;-70
2023/08/13 00:06:42;;;;;;;;;;;;;;;;;;5029440;27;90439;-69
2023/08/13 00:09:07;;;;;;;;;;;;;;;;;;5028770;27;89959;-67
2023/08/13 00:11:32;;;;;;;;;;;;;;;;;;5028415;27;92277;-64
2023/08/13 00:13:58;;;;;;;;;;;;;;;;;;5028079;27;89832;-68
2023/08/13 00:16:23;;;;;;;;;;;;;;;;;;5028663;27;89694;-69
2023/08/13 00:18:48;;;;;;;;;;;;;;;;;;5032443;27;89786;-71
2023/08/13 00:21:13;;;;;;;;;;;;;;;;;;5028768;27;89869;-68
2023/08/13 00:23:38;;;;;;;;;;;;;;;;;;5028380;27;89370;-70
2023/08/13 00:26:04;;;;;;;;;;;;;;;;;;5029283;27;89125;-69
2023/08/13 00:28:30;;;;;;;;;;;;;;;;;;5028330;27;89796;-68
2023/08/13 00:30:55;;;;;;;;;;;;;;;;;;5028572;27;89231;-71
2023/08/13 00:33:21;;;;;;;;;;;;;;;;;;5025112;27;89066;-69
2023/08/13 00:35:46;;;;;;;;;;;;;;;;;;5026877;27;89732;-68
2023/08/13 00:38:11;;;;;;;;;;;;;;;;;;5028179;27;89858;-67
2023/08/13 00:40:36;;;;;;;;;;;;;;;;;;5029650;27;89301;-66
2023/08/13 00:43:02;;;;;;;;;;;;;;;;;;5027826;27;89424;-67
2023/08/13 00:45:28;;;;;;;;;;;;;;;;;;5028493;27;89199;-67
2023/08/13 00:47:56;;;;;;;;;;;;;;;;;;5061530;27;89991;-66
2023/08/13 00:50:21;;;;;;;;;;;;;;;;;;5026514;27;89648;-64
2023/08/13 00:52:47;;;;;;;;;;;;;;;;;;5027520;27;89295;-68
2023/08/13 00:55:12;;;;;;;;;;;;;;;;;;5027438;27;89773;-70
2023/08/13 00:57:37;;;;;;;;;;;;;;;;;;5060415;27;91072;-71
2023/08/13 01:00:06;;;;;;;;;;;;;;;;;;5025018;27;90204;-68
2023/08/13 01:02:31;;;;;;;;;;;;;;;;;;5030281;27;89415;-68
2023/08/13 01:04:56;;;;;;;;;;;;;;;;;;5028254;27;89168;-65
2023/08/13 01:07:31;;;;;;;;;;;;;;;;;;5026317;27;91233;-65
2023/08/13 01:10:06;;;;;;;;;;;;;;;;;;5028425;27;89887;-64
2023/08/13 01:12:49;;;;;;;;;;;;;;;;;;5022983;27;89717;-65
2023/08/13 01:15:18;;;;;;;;;;;;;;;;;;5027747;27;89839;-67
2023/08/13 01:17:45;;;;;;;;;;;;;;;;;;5026559;27;89335;-64
2023/08/13 01:20:10;;;;;;;;;;;;;;;;;;5026796;27;89696;-71
2023/08/13 01:22:39;;;;;;;;;;;;;;;;;;5027591;27;91765;-71
2023/08/13 01:25:08;;;;;;;;;;;;;;;;;;5044886;27;89934;-67
2023/08/13 01:27:48;;;;;;;;;;;;;;;;;;5024622;27;90604;-70
2023/08/13 01:30:15;;;;;;;;;;;;;;;;;;5027191;27;89385;-68
2023/08/13 01:32:44;;;;;;;;;;;;;;;;;;5027850;27;90569;-69
2023/08/13 01:35:10;;;;;;;;;;;;;;;;;;5028086;27;89759;-70
2023/08/13 01:37:36;;;;;;;;;;;;;;;;;;5027752;27;90121;-71
2023/08/13 01:40:01;;;;;;;;;;;;;;;;;;5029847;27;89612;-67
2023/08/13 01:42:26;;;;;;;;;;;;;;;;;;5030088;27;89640;-68
2023/08/13 01:44:52;;;;;;;;;;;;;;;;;;5032137;27;89817;-70
2023/08/13 01:47:17;;;;;;;;;;;;;;;;;;5033321;27;89307;-71
2023/08/13 01:49:42;;;;;;;;;;;;;;;;;;5030043;27;89311;-66
2023/08/13 01:52:07;;;;;;;;;;;;;;;;;;5025950;27;89725;-69
2023/08/13 01:54:32;;;;;;;;;;;;;;;;;;5030302;27;89736;-68
2023/08/13 01:56:58;;;;;;;;;;;;;;;;;;5030823;27;89631;-67
2023/08/13 01:59:23;;;;;;;;;;;;;;;;;;5029991;27;91921;-68
2023/08/13 02:01:48;;;;;;;;;;;;;;;;;;5030834;27;89839;-70
2023/08/13 02:04:13;;;;;;;;;;;;;;;;;;5030163;27;89912;-69
2023/08/13 02:06:38;;;;;;;;;;;;;;;;;;5024936;27;89571;-68
2023/08/13 02:09:04;;;;;;;;;;;;;;;;;;5033483;27;91389;-67
2023/08/13 02:11:29;;;;;;;;;;;;;;;;;;5030275;27;89381;-69
2023/08/13 02:13:54;;;;;;;;;;;;;;;;;;5031043;27;89767;-67
2023/08/13 02:16:19;;;;;;;;;;;;;;;;;;5029639;27;89226;-68
2023/08/13 02:18:44;;;;;;;;;;;;;;;;;;5029279;27;89049;-70
2023/08/13 02:21:10;;;;;;;;;;;;;;;;;;5030308;27;90081;-68
2023/08/13 02:23:35;;;;;;;;;;;;;;;;;;5030040;27;89686;-65
2023/08/13 02:26:00;;;;;;;;;;;;;;;;;;5029481;27;89605;-70
2023/08/13 02:28:25;;;;;;;;;;;;;;;;;;5032472;27;90482;-70
2023/08/13 02:30:51;;;;;;;;;;;;;;;;;;5029000;27;89244;-69
2023/08/13 02:33:16;;;;;;;;;;;;;;;;;;5028861;27;89660;-67
2023/08/13 02:35:41;;;;;;;;;;;;;;;;;;5033213;27;90743;-69
2023/08/13 02:38:07;;;;;;;;;;;;;;;;;;5029357;27;89633;-70
2023/08/13 02:40:32;;;;;;;;;;;;;;;;;;5025390;27;89639;-65
2023/08/13 02:42:57;;;;;;;;;;;;;;;;;;5028009;27;91769;-69
2023/08/13 02:45:23;;;;;;;;;;;;;;;;;;5029124;27;89514;-71
2023/08/13 02:47:48;;;;;;;;;;;;;;;;;;5030335;27;89886;-65
2023/08/13 02:50:13;;;;;;;;;;;;;;;;;;5033032;27;89926;-66
2023/08/13 02:52:39;;;;;;;;;;;;;;;;;;5030818;27;90288;-71
2023/08/13 02:55:04;;;;;;;;;;;;;;;;;;5029870;27;90187;-69
2023/08/13 02:57:29;;;;;;;;;;;;;;;;;;5029832;27;89573;-71
2023/08/13 02:59:54;;;;;;;;;;;;;;;;;;5027607;27;90072;-70
2023/08/13 03:02:20;;;;;;;;;;;;;;;;;;5027210;27;89173;-68
2023/08/13 03:04:45;;;;;;;;;;;;;;;;;;5030583;27;89662;-69
2023/08/13 03:07:10;;;;;;;;;;;;;;;;;;5030039;27;90300;-69
2023/08/13 03:09:35;;;;;;;;;;;;;;;;;;5028704;27;89236;-69
2023/08/13 03:12:00;;;;;;;;;;;;;;;;;;5032620;27;89059;-72
2023/08/13 03:14:25;;;;;;;;;;;;;;;;;;5025204;27;89391;-71
2023/08/13 03:16:51;;;;;;;;;;;;;;;;;;5028772;27;89270;-71
2023/08/13 03:19:16;;;;;;;;;;;;;;;;;;5023455;27;89821;-71
2023/08/13 03:21:41;;;;;;;;;;;;;;;;;;5025389;27;89398;-71
2023/08/13 03:24:06;;;;;;;;;;;;;;;;;;5024025;27;89160;-69
2023/08/13 03:26:32;;;;;;;;;;;;;;;;;;5019697;27;89762;-66
2023/08/13 03:28:57;;;;;;;;;;;;;;;;;;5026912;27;89611;-70
2023/08/13 03:31:23;;;;;;;;;;;;;;;;;;5023496;27;89539;-65
2023/08/13 03:33:48;;;;;;;;;;;;;;;;;;5024003;27;89747;-65
2023/08/13 03:36:13;;;;;;;;;;;;;;;;;;5025611;27;90666;-66
2023/08/13 03:38:38;;;;;;;;;;;;;;;;;;5026674;27;89681;-64
2023/08/13 03:41:04;;;;;;;;;;;;;;;;;;5025810;27;90420;-65
2023/08/13 03:43:29;;;;;;;;;;;;;;;;;;5024793;27;90476;-69
2023/08/13 03:45:54;;;;;;;;;;;;;;;;;;5027037;27;90218;-69
2023/08/13 03:48:19;;;;;;;;;;;;;;;;;;5027876;27;90689;-70
2023/08/13 03:50:45;;;;;;;;;;;;;;;;;;5056918;27;91132;-70
2023/08/13 03:53:11;;;;;;;;;;;;;;;;;;5026244;27;89961;-67
2023/08/13 03:55:37;;;;;;;;;;;;;;;;;;5028983;27;90327;-70
2023/08/13 03:58:02;;;;;;;;;;;;;;;;;;5012497;27;89743;-67
2023/08/13 04:00:28;;;;;;;;;;;;;;;;;;5026548;27;90766;-70
2023/08/13 04:02:53;;;;;;;;;;;;;;;;;;5025195;27;89326;-68
2023/08/13 04:05:18;;;;;;;;;;;;;;;;;;5022744;27;90848;-67
2023/08/13 04:07:43;;;;;;;;;;;;;;;;;;5021710;27;89106;-67
2023/08/13 04:10:09;;;;;;;;;;;;;;;;;;5023826;27;89500;-70
2023/08/13 04:12:34;;;;;;;;;;;;;;;;;;5024602;27;90801;-70
2023/08/13 04:15:01;;;;;;;;;;;;;;;;;;5019915;27;90631;-69
2023/08/13 04:17:26;;;;;;;;;;;;;;;;;;5030703;27;89650;-68
2023/08/13 04:19:51;;;;;;;;;;;;;;;;;;5022713;27;89696;-68
2023/08/13 04:22:16;;;;;;;;;;;;;;;;;;5017631;27;89908;-68
2023/08/13 04:24:41;;;;;;;;;;;;;;;;;;5026172;27;89802;-68
2023/08/13 04:27:07;;;;;;;;;;;;;;;;;;5021372;27;89502;-68
2023/08/13 04:29:32;;;;;;;;;;;;;;;;;;5022265;27;89906;-68
2023/08/13 04:31:57;;;;;;;;;;;;;;;;;;5031551;27;90090;-70
2023/08/13 04:34:22;;;;;;;;;;;;;;;;;;5023695;27;89525;-68
2023/08/13 04:36:47;;;;;;;;;;;;;;;;;;5028685;27;89590;-69
2023/08/13 04:39:13;;;;;;;;;;;;;;;;;;5020309;27;89949;-71
2023/08/13 04:41:40;;;;;;;;;;;;;;;;;;5024259;27;89133;-71
2023/08/13 04:44:05;;;;;;;;;;;;;;;;;;5020950;27;90819;-71
2023/08/13 04:46:30;;;;;;;;;;;;;;;;;;5024484;27;89713;-71
2023/08/13 04:48:55;;;;;;;;;;;;;;;;;;5022859;27;89455;-71
2023/08/13 04:51:20;;;;;;;;;;;;;;;;;;5024079;27;90221;-70
2023/08/13 04:53:46;;;;;;;;;;;;;;;;;;5021687;27;89291;-71
2023/08/13 04:56:11;;;;;;;;;;;;;;;;;;5024896;27;89599;-70
2023/08/13 04:58:36;;;;;;;;;;;;;;;;;;5026736;27;89584;-67
2023/08/13 05:01:02;;;;;;;;;;;;;;;;;;5020105;27;89291;-70
2023/08/13 05:03:28;;;;;;;;;;;;;;;;;;5022229;27;89651;-67
2023/08/13 05:05:53;;;;;;;;;;;;;;;;;;5026209;27;89414;-68
2023/08/13 05:08:18;;;;;;;;;;;;;;;;;;5026063;27;89995;-70
2023/08/13 05:10:44;;;;;;;;;;;;;;;;;;5024080;27;90162;-69
2023/08/13 05:13:10;;;;;;;;;;;;;;;;;;5026475;27;89274;-71
2023/08/13 05:15:35;;;;;;;;;;;;;;;;;;5020250;27;89774;-70
2023/08/13 05:18:00;;;;;;;;;;;;;;;;;;5022405;27;89731;-70
2023/08/13 05:20:26;;;;;;;;;;;;;;;;;;5029139;27;90281;-70
2023/08/13 05:22:51;;;;;;;;;;;;;;;;;;5027344;27;90463;-70
2023/08/13 05:25:16;;;;;;;;;;;;;;;;;;5021653;27;90402;-70
2023/08/13 05:27:41;;;;;;;;;;;;;;;;;;5021234;27;90711;-69
2023/08/13 05:30:07;;;;;;;;;;;;;;;;;;5020723;27;89702;-68
2023/08/13 05:32:32;;;;;;;;;;;;;;;;;;5020869;27;90319;-68
2023/08/13 05:34:58;;;;;;;;;;;;;;;;;;5019735;27;89734;-66
2023/08/13 05:37:23;;;;;;;;;;;;;;;;;;5023077;27;89864;-68
2023/08/13 05:39:48;;;;;;;;;;;;;;;;;;5021793;27;90971;-68
2023/08/13 05:42:13;;;;;;;;;;;;;;;;;;5025581;27;89635;-66
2023/08/13 05:44:39;;;;;;;;;;;;;;;;;;5019897;27;89356;-67
2023/08/13 05:47:04;;;;;;;;;;;;;;;;;;5021056;27;89370;-67
2023/08/13 05:49:30;;;;;;;;;;;;;;;;;;5025810;27;89748;-65
2023/08/13 05:51:55;;;;;;;;;;;;;;;;;;5026318;27;89562;-64
2023/08/13 05:54:20;;;;;;;;;;;;;;;;;;5021598;27;89576;-64
2023/08/13 05:56:46;;;;;;;;;;;;;;;;;;5017348;27;90097;-66
2023/08/13 05:59:12;;;;;;;;;;;;;;;;;;5024466;27;90102;-68
2023/08/13 06:01:37;;;;;;;;;;;;;;;;;;5022081;27;89703;-69
2023/08/13 06:04:02;;;;;;;;;;;;;;;;;;5023359;27;89514;-72
2023/08/13 06:06:28;;;;;;;;;;;;;;;;;;5018401;27;89721;-70
2023/08/13 06:08:53;;;;;;;;;;;;;;;;;;5021978;27;89685;-68
2023/08/13 06:11:18;;;;;;;;;;;;;;;;;;5017832;27;89275;-69
2023/08/13 06:13:44;;;;;;;;;;;;;;;;;;5019320;27;89624;-65
2023/08/13 06:16:09;;;;;;;;;;;;;;;;;;5021453;27;90783;-70
2023/08/13 06:18:34;;;;;;;;;;;;;;;;;;5024510;27;90910;-67
2023/08/13 06:20:59;;;;;;;;;;;;;;;;;;5020735;27;89190;-67
2023/08/13 06:23:25;;;;;;;;;;;;;;;;;;5024062;27;89668;-68
2023/08/13 06:25:50;;;;;;;;;;;;;;;;;;5028306;27;89435;-69
2023/08/13 06:28:15;;;;;;;;;;;;;;;;;;5027326;27;90419;-71
2023/08/13 06:30:42;;;;;;;;;;;;;;;;;;5025585;27;89905;-70
2023/08/13 06:33:08;;;;;;;;;;;;;;;;;;5020133;27;90007;-69
2023/08/13 06:35:33;;;;;;;;;;;;;;;;;;5027763;27;90027;-68
2023/08/13 06:37:58;;;;;;;;;;;;;;;;;;5021236;27;90072;-68
2023/08/13 06:40:23;;;;;;;;;;;;;;;;;;5022585;27;89975;-68
2023/08/13 06:42:48;;;;;;;;;;;;;;;;;;5023080;27;89636;-68
2023/08/13 06:45:14;;;;;;;;;;;;;;;;;;5028769;27;89211;-67
2023/08/13 06:47:39;;;;;;;;;;;;;;;;;;5027839;27;90475;-66
2023/08/13 06:50:05;;;;;;;;;;;;;;;;;;5027306;27;89750;-71
2023/08/13 06:52:30;;;;;;;;;;;;;;;;;;5025770;27;90002;-70
2023/08/13 06:54:55;;;;;;;;;;;;;;;;;;5027061;27;89568;-73
2023/08/13 06:57:21;;;;;;;;;;;;;;;;;;5024530;27;90844;-73
2023/08/13 06:59:46;;;;;;;;;;;;;;;;;;5026907;27;89055;-72
2023/08/13 07:02:11;;;;;;;;;;;;;;;;;;5027537;27;90477;-72
2023/08/13 07:04:37;;;;;;;;;;;;;;;;;;5027032;27;89911;-71
2023/08/13 07:07:02;;;;;;;;;;;;;;;;;;5064450;27;90266;-72
2023/08/13 07:09:28;;;;;;;;;;;;;;;;;;5028064;27;91298;-70
2023/08/13 07:11:53;;;;;;;;;;;;;;;;;;5028803;27;89440;-72
2023/08/13 07:14:18;;;;;;;;;;;;;;;;;;5026815;27;89766;-72
2023/08/13 07:16:44;;;;;;;;;;;;;;;;;;5029488;27;90345;-70
2023/08/13 07:19:09;;;;;;;;;;;;;;;;;;5024438;27;89773;-70
2023/08/13 07:21:35;;;;;;;;;;;;;;;;;;5026264;27;89845;-72
2023/08/13 07:24:02;;;;;;;;;;;;;;;;;;5025189;27;90480;-72
2023/08/13 07:26:28;;;;;;;;;;;;;;;;;;5024446;27;89877;-72
2023/08/13 07:28:53;;;;;;;;;;;;;;;;;;5028454;27;90325;-71
2023/08/13 07:31:19;;;;;;;;;;;;;;;;;;5025108;27;89165;-71
2023/08/13 07:33:44;;;;;;;;;;;;;;;;;;5028174;27;89683;-70
2023/08/13 07:36:10;;;;;;;;;;;;;;;;;;5020211;27;91098;-71
2023/08/13 07:38:35;;;;;;;;;;;;;;;;;;5026736;27;89704;-71
2023/08/13 07:41:03;;;;;;;;;;;;;;;;;;5025796;27;89593;-72
2023/08/13 07:43:28;;;;;;;;;;;;;;;;;;5024733;27;90886;-70
2023/08/13 07:45:53;;;;;;;;;;;;;;;;;;5023975;27;90004;-67
2023/08/13 07:48:19;;;;;;;;;;;;;;;;;;5024225;27;89220;-70
2023/08/13 07:50:44;;;;;;;;;;;;;;;;;;5026606;27;89689;-68
2023/08/13 07:53:09;;;;;;;;;;;;;;;;;;5017783;27;90033;-64
2023/08/13 07:55:34;;;;;;;;;;;;;;;;;;5020839;27;89717;-69
2023/08/13 07:57:59;;;;;;;;;;;;;;;;;;5026060;27;89985;-64
2023/08/13 08:00:26;;;;;;;;;;;;;;;;;;5027130;27;89391;-64
2023/08/13 08:02:51;;;;;;;;;;;;;;;;;;5027874;27;89520;-64
2023/08/13 08:05:17;;;;;;;;;;;;;;;;;;5025555;27;90740;-65
2023/08/13 08:07:42;;;;;;;;;;;;;;;;;;5027502;27;90921;-63
2023/08/13 08:10:08;;;;;;;;;;;;;;;;;;5027449;27;89505;-64
2023/08/13 08:12:33;;;;;;;;;;;;;;;;;;5030195;27;89258;-67
2023/08/13 08:14:58;;;;;;;;;;;;;;;;;;5025336;27;90270;-64
2023/08/13 08:17:23;;;;;;;;;;;;;;;;;;5019910;27;89852;-64
2023/08/13 08:19:48;;;;;;;;;;;;;;;;;;5022916;27;89803;-68
2023/08/13 08:22:14;;;;;;;;;;;;;;;;;;5026239;27;89233;-66
2023/08/13 08:24:39;;;;;;;;;;;;;;;;;;5026300;27;90534;-65
2023/08/13 08:27:07;;;;;;;;;;;;;;;;;;5021540;27;89701;-74
2023/08/13 08:29:32;;;;;;;;;;;;;;;;;;5024204;27;89876;-69
2023/08/13 08:31:58;;;;;;;;;;;;;;;;;;5027392;27;89958;-70
2023/08/13 08:34:23;;;;;;;;;;;;;;;;;;5027553;27;89620;-73
2023/08/13 08:36:48;;;;;;;;;;;;;;;;;;5022494;27;90518;-69
2023/08/13 08:39:14;;;;;;;;;;;;;;;;;;5014328;27;90533;-66
2023/08/13 08:41:45;;;;;;;;;;;;;;;;;;5025812;27;89880;-68
2023/08/13 08:44:14;;;;;;;;;;;;;;;;;;5025080;27;90801;-68
2023/08/13 08:46:39;;;;;;;;;;;;;;;;;;5056598;27;89828;-68
2023/08/13 08:49:05;;;;;;;;;;;;;;;;;;5025789;27;89561;-66
2023/08/13 08:51:31;;;;;;;;;;;;;;;;;;5026933;27;89474;-67
2023/08/13 08:53:57;;;;;;;;;;;;;;;;;;5027709;27;89740;-72
2023/08/13 08:56:24;;;;;;;;;;;;;;;;;;5022959;27;89577;-68
2023/08/13 08:58:49;;;;;;;;;;;;;;;;;;5025238;27;89830;-68
2023/08/13 09:01:15;;;;;;;;;;;;;;;;;;5024464;27;89786;-70
2023/08/13 09:03:40;;;;;;;;;;;;;;;;;;5023150;27;89910;-72
2023/08/13 09:06:05;;;;;;;;;;;;;;;;;;5023187;27;89804;-70
2023/08/13 09:08:30;;;;;;;;;;;;;;;;;;5026256;27;92404;-71
2023/08/13 09:10:55;;;;;;;;;;;;;;;;;;5026297;27;89534;-71
2023/08/13 09:13:21;;;;;;;;;;;;;;;;;;5020242;27;90102;-73
2023/08/13 09:15:50;;;;;;;;;;;;;;;;;;5057728;27;91874;-71
2023/08/13 09:18:15;;;;;;;;;;;;;;;;;;5026203;27;89700;-72
2023/08/13 09:20:44;;;;;;;;;;;;;;;;;;5022675;27;90945;-71
2023/08/13 09:23:10;;;;;;;;;;;;;;;;;;5020852;27;90447;-70
2023/08/13 09:25:35;;;;;;;;;;;;;;;;;;5024778;27;89670;-71
2023/08/13 09:28:00;;;;;;;;;;;;;;;;;;5025388;27;90148;-69
2023/08/13 09:30:31;;;;;;;;;;;;;;;;;;5023966;27;89757;-68
2023/08/13 09:32:59;;;;;;;;;;;;;;;;;;5027481;27;91221;-67
2023/08/13 09:35:25;;;;;;;;;;;;;;;;;;5023347;27;89688;-72
2023/08/13 09:37:51;;;;;;;;;;;;;;;;;;5028678;27;89513;-71
2023/08/13 09:40:16;;;;;;;;;;;;;;;;;;5019051;27;91096;-68
2023/08/13 09:42:42;;;;;;;;;;;;;;;;;;5021788;27;89902;-72
2023/08/13 09:45:09;;;;;;;;;;;;;;;;;;5022539;27;90327;-72
2023/08/13 09:47:35;;;;;;;;;;;;;;;;;;5025465;27;89214;-70
2023/08/13 09:50:01;;;;;;;;;;;;;;;;;;5019002;27;89588;-68
2023/08/13 09:52:27;;;;;;;;;;;;;;;;;;5022400;27;89857;-69
2023/08/13 09:54:53;;;;;;;;;;;;;;;;;;5020443;27;89975;-71
2023/08/13 09:57:21;;;;;;;;;;;;;;;;;;5023210;27;90190;-68
2023/08/13 09:59:47;;;;;;;;;;;;;;;;;;5020183;27;93524;-69
2023/08/13 10:02:13;;;;;;;;;;;;;;;;;;5022957;27;89604;-67
2023/08/13 10:04:38;;;;;;;;;;;;;;;;;;5025015;27;89757;-67
2023/08/13 10:07:05;;;;;;;;;;;;;;;;;;5021055;27;89298;-67
2023/08/13 10:09:30;;;;;;;;;;;;;;;;;;5021902;27;90168;-69
2023/08/13 10:11:56;;;;;;;;;;;;;;;;;;5024321;27;89938;-68
2023/08/13 10:14:21;;;;;;;;;;;;;;;;;;5027923;27;90568;-70
2023/08/13 10:16:47;;;;;;;;;;;;;;;;;;5026977;27;89520;-67
2023/08/13 10:19:13;;;;;;;;;;;;;;;;;;5021787;27;90349;-70
2023/08/13 10:21:39;;;;;;;;;;;;;;;;;;5030615;27;90566;-69
2023/08/13 10:24:05;;;;;;;;;;;;;;;;;;5029196;27;90034;-68
2023/08/13 10:26:31;;;;;;;;;;;;;;;;;;5027210;27;89439;-67
2023/08/13 10:28:56;;;;;;;;;;;;;;;;;;5026224;27;89688;-69
2023/08/13 10:31:29;;;;;;;;;;;;;;;;;;5024154;27;91132;-68
2023/08/13 10:34:09;;;;;;;;;;;;;;;;;;5024827;27;90209;-68
2023/08/13 10:36:45;;;;;;;;;;;;;;;;;;5025992;27;89536;-68
2023/08/13 10:39:28;;;;;;;;;;;;;;;;;;5019094;27;89742;-71
2023/08/13 10:41:53;;;;;;;;;;;;;;;;;;5029322;27;89991;-72
2023/08/13 10:44:28;;;;;;;;;;;;;;;;;;5022152;27;89909;-70
2023/08/13 10:46:54;;;;;;;;;;;;;;;;;;5027279;27;89973;-72
2023/08/13 10:49:20;;;;;;;;;;;;;;;;;;5059667;27;89718;-71
2023/08/13 10:51:47;;;;;;;;;;;;;;;;;;5025162;27;90230;-71
2023/08/13 10:54:13;;;;;;;;;;;;;;;;;;5020043;27;89762;-70
2023/08/13 10:56:42;;;;;;;;;;;;;;;;;;5021073;27;89396;-68
2023/08/13 10:59:07;;;;;;;;;;;;;;;;;;5023696;27;91294;-69
2023/08/13 11:01:32;;;;;;;;;;;;;;;;;;5027150;27;89720;-72
2023/08/13 11:04:01;;;;;;;;;;;;;;;;;;5029689;27;90103;-72
2023/08/13 11:06:28;;;;;;;;;;;;;;;;;;5025038;27;89760;-68
2023/08/13 11:08:53;;;;;;;;;;;;;;;;;;5021307;27;90343;-69
2023/08/13 11:11:19;;;;;;;;;;;;;;;;;;5021983;27;90817;-69
2023/08/13 11:13:45;;;;;;;;;;;;;;;;;;5020110;27;90909;-69
2023/08/13 11:16:11;;;;;;;;;;;;;;;;;;5017860;27;90300;-69
2023/08/13 11:18:36;;;;;;;;;;;;;;;;;;5022676;27;90021;-69
2023/08/13 11:21:01;;;;;;;;;;;;;;;;;;5039341;27;91790;-65
2023/08/13 11:23:27;;;;;;;;;;;;;;;;;;5059890;27;90681;-66
2023/08/13 11:25:52;;;;;;;;;;;;;;;;;;5027757;27;89989;-65
2023/08/13 11:28:21;;;;;;;;;;;;;;;;;;5025011;27;89787;-67
2023/08/13 11:30:47;;;;;;;;;;;;;;;;;;5024917;27;89177;-66
2023/08/13 11:33:12;;;;;;;;;;;;;;;;;;5020145;27;90490;-65
2023/08/13 11:35:38;;;;;;;;;;;;;;;;;;5026023;27;89672;-68
2023/08/13 11:38:04;;;;;;;;;;;;;;;;;;5019019;27;90057;-65
2023/08/13 11:40:29;;;;;;;;;;;;;;;;;;5023329;27;90745;-63
2023/08/13 11:42:55;;;;;;;;;;;;;;;;;;5028545;27;90337;-67
2023/08/13 11:45:22;;;;;;;;;;;;;;;;;;5020841;27;90626;-75
2023/08/13 11:47:47;;;;;;;;;;;;;;;;;;5026707;27;89724;-69
2023/08/13 11:50:23;;;;;;;;;;;;;;;;;;5025009;27;89862;-67
2023/08/13 11:53:21;;;;;;;;;;;;;;;;;;5021468;27;90227;-70
2023/08/13 11:55:47;;;;;;;;;;;;;;;;;;5032197;27;89822;-69
2023/08/13 11:58:17;;;;;;;;;;;;;;;;;;5022433;27;89713;-68
2023/08/13 12:00:42;;;;;;;;;;;;;;;;;;5022857;27;90662;-70
2023/08/13 12:03:07;;;;;;;;;;;;;;;;;;5015018;27;89514;-69
2023/08/13 12:05:33;;;;;;;;;;;;;;;;;;5023912;27;90025;-72
2023/08/13 12:08:00;;;;;;;;;;;;;;;;;;5025269;27;90497;-72
2023/08/13 12:10:26;;;;;;;;;;;;;;;;;;5023665;27;90499;-69
2023/08/13 12:12:51;;;;;;;;;;;;;;;;;;5018466;27;90585;-69
2023/08/13 12:15:17;;;;;;;;;;;;;;;;;;5024429;27;90129;-67
2023/08/13 12:17:42;;;;;;;;;;;;;;;;;;5027678;27;90623;-70
2023/08/13 12:20:11;;;;;;;;;;;;;;;;;;5022208;27;89665;-65
2023/08/13 12:22:36;;;;;;;;;;;;;;;;;;5023019;27;90342;-65
2023/08/13 12:25:02;;;;;;;;;;;;;;;;;;5039653;27;92419;-64
2023/08/13 12:27:27;;;;;;;;;;;;;;;;;;5020836;27;91173;-64
2023/08/13 12:29:52;;;;;;;;;;;;;;;;;;5025461;27;90732;-65
2023/08/13 12:32:17;;;;;;;;;;;;;;;;;;5024228;27;89684;-64
2023/08/13 12:34:43;;;;;;;;;;;;;;;;;;5021451;27;89068;-64
2023/08/13 12:37:08;;;;;;;;;;;;;;;;;;5026600;27;89770;-65
2023/08/13 12:39:33;;;;;;;;;;;;;;;;;;5023351;27;89717;-64
2023/08/13 12:41:58;;;;;;;;;;;;;;;;;;5025868;27;89603;-65
2023/08/13 12:44:24;;;;;;;;;;;;;;;;;;5026970;27;89771;-64
2023/08/13 12:46:49;;;;;;;;;;;;;;;;;;5025656;27;89376;-63
2023/08/13 12:49:14;;;;;;;;;;;;;;;;;;5026093;27;90489;-64
2023/08/13 12:51:39;;;;;;;;;;;;;;;;;;5029762;27;89738;-64
2023/08/13 12:54:05;;;;;;;;;;;;;;;;;;5040811;27;90875;-63
2023/08/13 12:56:30;;;;;;;;;;;;;;;;;;5051663;27;92876;-64
2023/08/13 12:58:55;;;;;;;;;;;;;;;;;;5042708;27;92087;-65
2023/08/13 13:01:20;;;;;;;;;;;;;;;;;;5021660;27;90180;-66
2023/08/13 13:03:46;;;;;;;;;;;;;;;;;;5022935;27;89740;-64
2023/08/13 13:06:11;;;;;;;;;;;;;;;;;;5024306;27;89584;-64
2023/08/13 13:08:36;;;;;;;;;;;;;;;;;;5027454;27;90789;-64
2023/08/13 13:11:02;;;;;;;;;;;;;;;;;;5024173;27;89813;-65
2023/08/13 13:13:28;;;;;;;;;;;;;;;;;;5024724;27;89948;-65
2023/08/13 13:15:53;;;;;;;;;;;;;;;;;;5020523;27;89619;-64
2023/08/13 13:18:19;;;;;;;;;;;;;;;;;;5027838;27;92827;-65
2023/08/13 13:20:46;;;;;;;;;;;;;;;;;;5025587;27;89110;-64
2023/08/13 13:23:11;;;;;;;;;;;;;;;;;;5018375;27;91009;-64
2023/08/13 13:25:38;;;;;;;;;;;;;;;;;;5021807;27;90375;-64
2023/08/13 13:28:03;;;;;;;;;;;;;;;;;;5023105;27;89535;-65
2023/08/13 13:30:28;;;;;;;;;;;;;;;;;;5020837;27;90958;-65
2023/08/13 13:32:54;;;;;;;;;;;;;;;;;;5024267;27;89835;-64
2023/08/13 13:35:20;;;;;;;;;;;;;;;;;;5021462;27;89954;-64
2023/08/13 13:37:45;;;;;;;;;;;;;;;;;;5024714;27;89324;-65
2023/08/13 13:40:10;;;;;;;;;;;;;;;;;;5023940;27;90269;-65
2023/08/13 13:42:37;;;;;;;;;;;;;;;;;;5020596;27;90801;-65
2023/08/13 13:45:03;;;;;;;;;;;;;;;;;;5024833;27;89425;-64
2023/08/13 13:47:28;;;;;;;;;;;;;;;;;;5025829;27;90061;-65
2023/08/13 13:49:53;;;;;;;;;;;;;;;;;;5023111;27;89917;-65
2023/08/13 13:52:19;;;;;;;;;;;;;;;;;;5023200;27;89304;-65
2023/08/13 13:54:44;;;;;;;;;;;;;;;;;;5023786;27;89542;-65
2023/08/13 13:57:09;;;;;;;;;;;;;;;;;;5022508;27;90048;-67
2023/08/13 13:59:34;;;;;;;;;;;;;;;;;;5018728;27;89304;-66
2023/08/13 14:02:00;;;;;;;;;;;;;;;;;;5016283;27;89853;-68
2023/08/13 14:04:26;;;;;;;;;;;;;;;;;;5023459;27;89944;-67
2023/08/13 14:06:51;;;;;;;;;;;;;;;;;;5020700;27;89068;-67
2023/08/13 14:09:16;;;;;;;;;;;;;;;;;;5024000;27;89638;-68
2023/08/13 14:11:41;;;;;;;;;;;;;;;;;;5021587;27;89275;-67
2023/08/13 14:14:07;;;;;;;;;;;;;;;;;;5023977;27;90181;-69
2023/08/13 14:16:32;;;;;;;;;;;;;;;;;;5022632;27;89712;-65
2023/08/13 14:18:57;;;;;;;;;;;;;;;;;;5026059;27;89373;-70
2023/08/13 14:21:22;;;;;;;;;;;;;;;;;;5024827;27;89841;-67
2023/08/13 14:23:48;;;;;;;;;;;;;;;;;;5023798;27;89808;-67
2023/08/13 14:26:13;;;;;;;;;;;;;;;;;;5017694;27;90011;-65
2023/08/13 14:28:38;;;;;;;;;;;;;;;;;;5022807;27;89609;-64
2023/08/13 14:31:03;;;;;;;;;;;;;;;;;;5022599;27;89646;-65
2023/08/13 14:33:28;;;;;;;;;;;;;;;;;;5020995;27;89173;-68
2023/08/13 14:35:54;;;;;;;;;;;;;;;;;;5023327;27;90052;-68
2023/08/13 14:38:19;;;;;;;;;;;;;;;;;;5023243;27;89460;-69
2023/08/13 14:40:44;;;;;;;;;;;;;;;;;;5027729;27;89858;-69
2023/08/13 14:43:10;;;;;;;;;;;;;;;;;;5022492;27;89514;-68
2023/08/13 14:45:35;;;;;;;;;;;;;;;;;;5024408;27;89083;-66
2023/08/13 14:48:00;;;;;;;;;;;;;;;;;;5024700;27;90023;-69
2023/08/13 14:50:25;;;;;;;;;;;;;;;;;;5024001;27;89578;-66
2023/08/13 14:52:51;;;;;;;;;;;;;;;;;;5026207;27;89587;-64
2023/08/13 14:55:16;;;;;;;;;;;;;;;;;;5023829;27;89764;-64
2023/08/13 14:57:41;;;;;;;;;;;;;;;;;;5019150;27;90790;-63
2023/08/13 15:00:08;;;;;;;;;;;;;;;;;;5029931;27;89545;-64
2023/08/13 15:02:34;;;;;;;;;;;;;;;;;;5025659;27;90003;-63
2023/08/13 15:04:59;;;;;;;;;;;;;;;;;;5024860;27;89454;-64
2023/08/13 15:07:24;;;;;;;;;;;;;;;;;;5024681;27;90123;-65
2023/08/13 15:09:49;;;;;;;;;;;;;;;;;;5023762;27;89955;-64
2023/08/13 15:12:15;;;;;;;;;;;;;;;;;;5024266;27;90284;-64
2023/08/13 15:14:40;;;;;;;;;;;;;;;;;;5025550;27;91286;-69
2023/08/13 15:17:05;;;;;;;;;;;;;;;;;;5024742;27;90095;-64
2023/08/13 15:19:32;;;;;;;;;;;;;;;;;;5027894;27;90221;-68
2023/08/13 15:21:57;;;;;;;;;;;;;;;;;;5031193;27;89698;-67
2023/08/13 15:24:22;;;;;;;;;;;;;;;;;;5025768;27;89608;-72
2023/08/13 15:26:47;;;;;;;;;;;;;;;;;;5028225;27;90083;-71
2023/08/13 15:29:12;;;;;;;;;;;;;;;;;;5025560;27;89638;-64
2023/08/13 15:31:37;;;;;;;;;;;;;;;;;;5025573;27;89688;-63
2023/08/13 15:34:03;;;;;;;;;;;;;;;;;;5027542;27;90462;-64
2023/08/13 15:36:28;;;;;;;;;;;;;;;;;;5022218;27;89381;-64
2023/08/13 15:38:53;;;;;;;;;;;;;;;;;;5028596;27;89078;-66
2023/08/13 15:41:18;;;;;;;;;;;;;;;;;;5027712;27;89579;-65
2023/08/13 15:43:44;;;;;;;;;;;;;;;;;;5029319;27;91376;-68
2023/08/13 15:46:09;;;;;;;;;;;;;;;;;;5024452;27;90375;-70
2023/08/13 15:48:34;;;;;;;;;;;;;;;;;;5026558;27;89481;-64
2023/08/13 15:50:59;;;;;;;;;;;;;;;;;;5026873;27;89579;-68
2023/08/13 15:53:24;;;;;;;;;;;;;;;;;;5026813;27;89687;-68
2023/08/13 15:55:50;;;;;;;;;;;;;;;;;;5028015;27;89753;-64
2023/08/13 15:58:15;;;;;;;;;;;;;;;;;;5025777;27;89993;-63
2023/08/13 16:00:40;;;;;;;;;;;;;;;;;;5025409;27;89651;-63
2023/08/13 16:03:06;;;;;;;;;;;;;;;;;;5026537;27;89599;-64
2023/08/13 16:05:31;;;;;;;;;;;;;;;;;;5024767;27;90371;-63
2023/08/13 16:07:56;;;;;;;;;;;;;;;;;;5029048;27;89634;-68
2023/08/13 16:10:21;;;;;;;;;;;;;;;;;;5025357;27;89583;-65
2023/08/13 16:12:47;;;;;;;;;;;;;;;;;;5030593;27;92859;-67
2023/08/13 16:15:12;;;;;;;;;;;;;;;;;;5027329;27;88976;-68
2023/08/13 16:17:39;;;;;;;;;;;;;;;;;;5023366;27;89230;-67
2023/08/13 16:20:06;;;;;;;;;;;;;;;;;;5027875;27;89745;-67
2023/08/13 16:22:31;;;;;;;;;;;;;;;;;;5023840;27;91691;-68
2023/08/13 16:24:56;;;;;;;;;;;;;;;;;;5027827;27;89909;-69
2023/08/13 16:27:22;;;;;;;;;;;;;;;;;;5029319;27;90364;-65
2023/08/13 16:29:47;;;;;;;;;;;;;;;;;;5027485;27;89200;-63
2023/08/13 16:32:12;;;;;;;;;;;;;;;;;;5026989;27;90406;-63
2023/08/13 16:34:37;;;;;;;;;;;;;;;;;;5026670;27;89327;-63
2023/08/13 16:37:03;;;;;;;;;;;;;;;;;;5027177;27;89721;-63